createdAt,value
2023-03-05T00:03:09.676Z,95073.00
2023-03-05T00:07:09.625Z,95075.00
2023-03-05T00:11:09.580Z,95073.00
2023-03-05T00:15:09.545Z,95071.00
2023-03-05T00:19:09.507Z,95069.00
2023-03-05T00:23:09.491Z,95071.00
2023-03-05T00:27:09.430Z,95069.00
2023-03-05T00:31:09.453Z,95065.00
2023-03-05T00:35:09.386Z,95065.00
2023-03-05T00:39:09.335Z,95063.00
2023-03-05T00:43:09.295Z,95061.00
2023-03-05T00:47:09.270Z,95059.00
2023-03-05T00:51:09.299Z,95059.00
2023-03-05T00:55:09.231Z,95057.00
2023-03-05T00:59:09.211Z,95053.00
2023-03-05T01:03:09.107Z,95049.00
2023-03-05T01:07:09.089Z,95042.00
2023-03-05T01:11:09.025Z,95038.00
2023-03-05T01:15:09.015Z,95032.00
2023-03-05T01:19:08.982Z,95024.00
2023-03-05T01:23:08.897Z,95022.00
2023-03-05T01:27:08.864Z,95024.00
2023-03-05T01:31:08.878Z,95018.00
2023-03-05T01:35:08.802Z,95020.00
2023-03-05T01:39:08.754Z,95022.00
2023-03-05T01:43:08.755Z,95018.00
2023-03-05T01:47:08.668Z,95016.00
2023-03-05T01:51:08.647Z,95016.00
2023-03-05T01:55:08.622Z,95012.00
2023-03-05T01:59:08.558Z,95010.00
2023-03-05T02:03:08.558Z,95008.00
2023-03-05T02:07:08.530Z,95008.00
2023-03-05T02:11:08.470Z,95004.00
2023-03-05T02:15:08.444Z,95002.00
2023-03-05T02:19:08.395Z,95002.00
2023-03-05T02:23:08.353Z,94998.00
2023-03-05T02:27:08.320Z,94993.00
2023-03-05T02:31:08.292Z,94989.00
2023-03-05T02:35:08.250Z,94987.00
2023-03-05T02:39:08.221Z,94985.00
2023-03-05T02:43:08.170Z,94983.00
2023-03-05T02:47:08.098Z,94983.00
2023-03-05T02:51:08.114Z,94979.00
2023-03-05T02:55:08.051Z,94977.00
2023-03-05T02:59:08.051Z,94975.00
2023-03-05T03:03:08.022Z,94971.00
2023-03-05T03:07:07.997Z,94969.00
2023-03-05T03:11:08.104Z,94967.00
2023-03-05T03:15:08.053Z,94961.00
2023-03-05T03:19:08.075Z,94967.00
2023-03-05T03:23:08.148Z,94957.00
2023-03-05T03:27:08.192Z,94955.00
2023-03-05T03:31:08.284Z,94955.00
2023-03-05T03:35:08.291Z,94959.00
2023-03-05T03:39:08.353Z,94955.00
2023-03-05T03:43:08.369Z,94959.00
2023-03-05T03:47:08.431Z,94949.00
2023-03-05T03:51:08.491Z,94949.00
2023-03-05T03:55:08.547Z,94949.00
2023-03-05T03:59:08.587Z,94949.00
2023-03-05T04:03:08.619Z,94949.00
2023-03-05T04:07:08.760Z,94947.00
2023-03-05T04:11:08.771Z,94943.00
2023-03-05T04:15:08.835Z,94943.00
2023-03-05T04:19:08.926Z,94942.00
2023-03-05T04:23:08.968Z,94940.00
2023-03-05T04:27:08.977Z,94932.00
2023-03-05T04:31:09.078Z,94932.00
2023-03-05T04:35:09.136Z,94926.00
2023-03-05T04:39:09.179Z,94918.00
2023-03-05T04:43:09.262Z,94918.00
2023-03-05T04:47:09.368Z,94912.00
2023-03-05T04:51:09.436Z,94914.00
2023-03-05T04:55:09.483Z,94912.00
2023-03-05T04:59:09.581Z,94906.00
2023-03-05T05:03:09.654Z,94904.00
2023-03-05T05:07:09.719Z,94895.00
2023-03-05T05:11:09.803Z,94895.00
2023-03-05T05:15:09.927Z,94889.00
2023-03-05T05:19:10.010Z,94893.00
2023-03-05T05:23:10.110Z,94889.00
2023-03-05T05:27:10.179Z,94879.00
2023-03-05T05:31:10.297Z,94877.00
2023-03-05T05:35:10.372Z,94879.00
2023-03-05T05:39:10.464Z,94873.00
2023-03-05T05:43:10.555Z,94871.00
2023-03-05T05:47:10.632Z,94873.00
2023-03-05T05:51:10.768Z,94877.00
2023-03-05T05:55:10.831Z,94879.00
2023-03-05T05:59:10.979Z,94877.00
2023-03-05T06:03:11.084Z,94881.00
2023-03-05T06:07:11.195Z,94889.00
2023-03-05T06:11:11.251Z,94891.00
2023-03-05T06:15:11.358Z,94893.00
2023-03-05T06:19:11.475Z,94893.00
2023-03-05T06:23:11.509Z,94891.00
2023-03-05T06:27:11.640Z,94891.00
2023-03-05T06:31:11.828Z,94896.00
2023-03-05T06:35:11.835Z,94893.00
2023-03-05T06:39:11.902Z,94895.00
2023-03-05T06:43:11.985Z,94893.00
2023-03-05T06:47:12.097Z,94893.00
2023-03-05T06:51:12.178Z,94891.00
2023-03-05T06:55:12.296Z,94881.00
2023-03-05T06:59:12.380Z,94889.00
2023-03-05T07:03:12.460Z,94889.00
2023-03-05T07:07:12.538Z,94881.00
2023-03-05T07:11:12.625Z,94881.00
2023-03-05T07:15:12.689Z,94879.00
2023-03-05T07:19:12.798Z,94879.00
2023-03-05T07:23:12.816Z,94877.00
2023-03-05T07:27:12.895Z,94871.00
2023-03-05T07:31:12.931Z,94865.00
2023-03-05T07:35:12.994Z,94861.00
2023-03-05T07:39:13.009Z,94853.00
2023-03-05T07:43:13.004Z,94853.00
2023-03-05T07:47:12.997Z,94851.00
2023-03-05T07:51:13.021Z,94847.00
2023-03-05T07:55:13.133Z,94842.00
2023-03-05T07:59:13.307Z,94836.00
2023-03-05T08:03:13.477Z,94828.00
2023-03-05T08:07:13.697Z,94820.00
2023-03-05T08:11:13.643Z,94820.00
2023-03-05T08:15:13.618Z,94818.00
2023-03-05T08:19:13.568Z,94810.00
2023-03-05T08:23:13.549Z,94816.00
2023-03-05T08:27:13.483Z,94808.00
2023-03-05T08:31:13.508Z,94804.00
2023-03-05T08:35:13.431Z,94800.00
2023-03-05T08:39:13.396Z,94800.00
2023-03-05T08:43:13.317Z,94795.00
2023-03-05T08:47:13.360Z,94789.00
2023-03-05T08:51:13.272Z,94787.00
2023-03-05T08:55:13.260Z,94779.00
2023-03-05T08:59:13.761Z,94773.00
2023-03-05T09:03:13.260Z,94767.00
2023-03-05T09:07:13.156Z,94767.00
2023-03-05T09:11:13.146Z,94757.00
2023-03-05T09:15:13.315Z,94749.00
2023-03-05T09:19:13.222Z,94742.00
2023-03-05T09:23:13.189Z,94730.00
2023-03-05T09:27:13.178Z,94726.00
2023-03-05T09:31:13.156Z,94716.00
2023-03-05T09:35:13.064Z,94702.00
2023-03-05T09:39:13.081Z,94691.00
2023-03-05T09:43:13.080Z,94683.00
2023-03-05T09:47:14.596Z,94681.00
2023-03-05T09:51:12.952Z,94673.00
2023-03-05T09:55:12.934Z,94669.00
2023-03-05T09:59:12.897Z,94663.00
2023-03-05T10:03:12.962Z,94657.00
2023-03-05T10:07:12.797Z,94651.00
2023-03-05T10:11:12.787Z,94647.00
2023-03-05T10:15:12.765Z,94642.00
2023-03-05T10:19:12.723Z,94632.00
2023-03-05T10:23:12.827Z,94618.00
2023-03-05T10:27:12.911Z,94618.00
2023-03-05T10:31:12.868Z,94606.00
2023-03-05T10:35:12.893Z,94591.00
2023-03-05T10:39:12.901Z,94587.00
2023-03-05T10:43:12.942Z,94579.00
2023-03-05T10:47:12.889Z,94569.00
2023-03-05T10:51:12.845Z,94557.00
2023-03-05T10:55:12.824Z,94552.00
2023-03-05T10:59:12.886Z,94540.00
2023-03-05T11:03:12.953Z,94538.00
2023-03-05T11:07:13.152Z,94528.00
2023-03-05T11:11:13.295Z,94520.00
2023-03-05T11:15:13.532Z,94510.00
2023-03-05T11:19:13.736Z,94504.00
2023-03-05T11:23:13.727Z,94497.00
2023-03-05T11:27:13.660Z,94489.00
2023-03-05T11:31:13.691Z,94479.00
2023-03-05T11:35:13.597Z,94471.00
2023-03-05T11:39:13.563Z,94461.00
2023-03-05T11:43:13.508Z,94450.00
2023-03-05T11:47:13.508Z,94440.00
2023-03-05T11:51:13.457Z,94438.00
2023-03-05T11:55:13.425Z,94428.00
2023-03-05T11:59:13.449Z,94424.00
2023-03-05T12:03:13.714Z,94414.00
2023-03-05T12:07:13.913Z,94406.00
2023-03-05T12:11:14.090Z,94395.00
2023-03-05T12:15:14.269Z,94389.00
2023-03-05T12:19:15.513Z,94381.00
2023-03-05T12:23:14.683Z,94375.00
2023-03-05T12:27:14.883Z,94359.00
2023-03-05T12:31:15.160Z,94352.00
2023-03-05T12:35:15.272Z,94342.00
2023-03-05T12:39:15.462Z,94334.00
2023-03-05T12:43:15.663Z,94326.00
2023-03-05T12:47:15.829Z,94318.00
2023-03-05T12:51:15.986Z,94314.00
2023-03-05T12:55:16.168Z,94306.00
2023-03-05T12:59:16.309Z,94306.00
2023-03-05T13:03:16.548Z,94301.00
2023-03-05T13:07:16.722Z,94299.00
2023-03-05T13:11:16.911Z,94291.00
2023-03-05T13:15:17.044Z,94291.00
2023-03-05T13:19:17.224Z,94281.00
2023-03-05T13:23:17.428Z,94271.00
2023-03-05T13:27:17.613Z,94267.00
2023-03-05T13:31:17.890Z,94263.00
2023-03-05T13:35:18.018Z,94259.00
2023-03-05T13:39:19.151Z,94256.00
2023-03-05T13:43:18.396Z,94252.00
2023-03-05T13:47:18.982Z,94246.00
2023-03-05T13:51:19.074Z,94242.00
2023-03-05T13:55:19.292Z,94234.00
2023-03-05T13:59:18.923Z,94234.00
2023-03-05T14:03:18.728Z,94230.00
2023-03-05T14:07:18.863Z,94222.00
2023-03-05T14:11:18.744Z,94220.00
2023-03-05T14:15:19.088Z,94216.00
2023-03-05T14:19:18.840Z,94212.00
2023-03-05T14:23:26.353Z,94212.00
2023-03-05T14:27:19.487Z,94205.00
2023-03-05T14:31:18.612Z,94207.00
2023-03-05T14:35:18.503Z,94203.00
2023-03-05T14:39:18.399Z,94199.00
2023-03-05T14:43:18.346Z,94195.00
2023-03-05T14:47:18.299Z,94195.00
2023-03-05T14:51:18.309Z,94191.00
2023-03-05T14:55:18.395Z,94185.00
2023-03-05T14:59:18.394Z,94181.00
2023-03-05T15:03:18.407Z,94177.00
2023-03-05T15:07:18.479Z,94169.00
2023-03-05T15:11:18.510Z,94169.00
2023-03-05T15:15:18.610Z,94167.00
2023-03-05T15:19:18.618Z,94165.00
2023-03-05T15:23:18.674Z,94161.00
2023-03-05T15:27:18.722Z,94161.00
2023-03-05T15:31:18.825Z,94161.00
2023-03-05T15:35:18.853Z,94157.00
2023-03-05T15:39:18.915Z,94159.00
2023-03-05T15:43:18.993Z,94167.00
2023-03-05T15:47:19.073Z,94161.00
2023-03-05T15:51:19.168Z,94165.00
2023-03-05T15:55:19.279Z,94163.00
2023-03-05T15:59:19.379Z,94165.00
2023-03-05T16:03:19.534Z,94169.00
2023-03-05T16:07:20.319Z,94167.00
2023-03-05T16:11:19.569Z,94175.00
2023-03-05T16:15:19.528Z,94171.00
2023-03-05T16:19:19.523Z,94173.00
2023-03-05T16:23:19.581Z,94175.00
2023-03-05T16:27:19.452Z,94179.00
2023-03-05T16:31:19.424Z,94181.00
2023-03-05T16:35:19.409Z,94177.00
2023-03-05T16:39:19.336Z,94187.00
2023-03-05T16:43:19.304Z,94187.00
2023-03-05T16:47:19.233Z,94193.00
2023-03-05T16:51:20.003Z,94191.00
2023-03-05T16:55:19.390Z,94195.00
2023-03-05T16:59:19.636Z,94201.00
2023-03-05T17:03:19.860Z,94201.00
2023-03-05T17:07:20.062Z,94205.00
2023-03-05T17:11:20.274Z,94211.00
2023-03-05T17:15:20.224Z,94216.00
2023-03-05T17:19:20.183Z,94222.00
2023-03-05T17:23:20.155Z,94224.00
2023-03-05T17:27:20.206Z,94228.00
2023-03-05T17:31:20.126Z,94232.00
2023-03-05T17:35:20.095Z,94236.00
2023-03-05T17:39:20.543Z,94240.00
2023-03-05T17:43:20.003Z,94248.00
2023-03-05T17:47:19.953Z,94250.00
2023-03-05T17:51:19.994Z,94254.00
2023-03-05T17:55:20.177Z,94259.00
2023-03-05T17:59:20.285Z,94261.00
2023-03-05T18:03:20.436Z,94261.00
2023-03-05T18:07:20.580Z,94259.00
2023-03-05T18:11:20.667Z,94263.00
2023-03-05T18:15:20.768Z,94263.00
2023-03-05T18:19:20.878Z,94265.00
2023-03-05T18:23:20.889Z,94265.00
2023-03-05T18:27:20.930Z,94269.00
2023-03-05T18:31:20.979Z,94271.00
2023-03-05T18:35:21.122Z,94271.00
2023-03-05T18:39:20.956Z,94277.00
2023-03-05T18:43:20.937Z,94277.00
2023-03-05T18:47:20.960Z,94277.00
2023-03-05T18:51:20.927Z,94275.00
2023-03-05T18:55:20.962Z,94273.00
2023-03-05T18:59:20.957Z,94275.00
2023-03-05T19:03:22.863Z,94279.00
2023-03-05T19:07:21.012Z,94283.00
2023-03-05T19:11:21.037Z,94279.00
2023-03-05T19:15:21.024Z,94285.00
2023-03-05T19:19:21.062Z,94285.00
2023-03-05T19:23:21.093Z,94287.00
2023-03-05T19:27:21.137Z,94283.00
2023-03-05T19:31:21.139Z,94283.00
2023-03-05T19:35:21.238Z,94285.00
2023-03-05T19:39:21.189Z,94283.00
2023-03-05T19:43:21.239Z,94287.00
2023-03-05T19:47:21.308Z,94283.00
2023-03-05T19:51:21.350Z,94283.00
2023-03-05T19:55:21.367Z,94289.00
2023-03-05T19:59:21.446Z,94287.00
2023-03-05T20:03:21.502Z,94285.00
2023-03-05T20:07:21.620Z,94287.00
2023-03-05T20:11:21.606Z,94289.00
2023-03-05T20:15:21.667Z,94287.00
2023-03-05T20:19:21.747Z,94287.00
2023-03-05T20:23:21.873Z,94287.00
2023-03-05T20:27:21.905Z,94283.00
2023-03-05T20:31:22.211Z,94283.00
2023-03-05T20:35:22.112Z,94281.00
2023-03-05T20:39:22.168Z,94277.00
2023-03-05T20:43:22.248Z,94277.00
2023-03-05T20:47:22.342Z,94275.00
2023-03-05T20:51:22.462Z,94275.00
2023-03-05T20:55:22.518Z,94273.00
2023-03-05T20:59:22.656Z,94269.00
2023-03-05T21:03:25.469Z,94267.00
2023-03-05T21:07:22.687Z,94265.00
2023-03-05T21:11:22.634Z,94261.00
2023-03-05T21:15:22.639Z,94261.00
2023-03-05T21:19:22.602Z,94256.00
2023-03-05T21:23:22.516Z,94252.00
2023-03-05T21:27:22.480Z,94250.00
2023-03-05T21:31:22.546Z,94248.00
2023-03-05T21:35:22.472Z,94244.00
2023-03-05T21:39:22.387Z,94242.00
2023-03-05T21:43:22.343Z,94238.00
2023-03-05T21:47:22.298Z,94232.00
2023-03-05T21:51:22.301Z,94222.00
2023-03-05T21:55:22.237Z,94218.00
2023-03-05T21:59:22.611Z,94216.00
2023-03-05T22:03:22.163Z,94216.00
2023-03-05T22:07:22.141Z,94212.00
2023-03-05T22:11:22.114Z,94218.00
2023-03-05T22:15:22.287Z,94216.00
2023-03-05T22:19:22.442Z,94222.00
2023-03-05T22:23:22.528Z,94216.00
2023-03-05T22:27:22.680Z,94218.00
2023-03-05T22:31:22.857Z,94222.00
2023-03-05T22:35:23.002Z,94216.00
2023-03-05T22:39:23.120Z,94211.00
2023-03-05T22:43:23.258Z,94209.00
2023-03-05T22:47:23.441Z,94211.00
2023-03-05T22:51:23.628Z,94209.00
2023-03-05T22:55:23.786Z,94205.00
2023-03-05T22:59:23.963Z,94199.00
2023-03-05T23:03:24.239Z,94197.00
2023-03-05T23:07:24.371Z,94199.00
2023-03-05T23:11:24.530Z,94203.00
2023-03-05T23:15:24.770Z,94199.00
2023-03-05T23:19:24.979Z,94201.00
2023-03-05T23:23:25.134Z,94197.00
2023-03-05T23:27:25.341Z,94197.00
2023-03-05T23:31:25.537Z,94197.00
2023-03-05T23:35:25.703Z,94197.00
2023-03-05T23:39:25.856Z,94197.00
2023-03-05T23:43:26.050Z,94197.00
2023-03-05T23:47:26.259Z,94195.00
2023-03-05T23:51:26.658Z,94197.00
2023-03-05T23:55:26.660Z,94201.00
2023-03-05T23:59:26.853Z,94201.00
